Date,TemperatureHighF,TemperatureAvgF,TemperatureLowF,DewpointHighF,DewpointAvgF,DewpointLowF,HumidityHigh,HumidityAvg,HumidityLow,PressureMaxIn,PressureMinIn,WindSpeedMaxMPH,WindSpeedAvgMPH,GustSpeedMaxMPH,PrecipitationSumIn
2013-1-1,81,66,54,65,59,53,99,81,43,30.25,30.06,17,2,17,0.00
2013-1-2,82,67,56,72,63,56,99,88,51,30.12,30.01,15,2,15,0.00
2013-1-3,82,69,58,72,65,57,99,88,56,30.16,30.05,15,3,15,0.01
2013-1-4,71,67,62,70,66,62,99,99,95,30.28,30.13,14,5,14,0.05
2013-1-5,80,68,62,70,64,61,99,89,60,30.31,30.18,16,5,16,0.00
2013-1-6,83,72,64,77,68,64,99,90,59,30.22,30.08,11,4,11,0.01
2013-1-7,76,69,64,73,68,58,99,97,78,30.21,30.10,17,6,17,0.11
2013-1-8,85,72,63,78,68,63,99,89,52,30.24,30.13,17,5,17,0.00
2013-1-9,86,76,69,78,69,60,99,82,42,30.29,30.18,18,6,18,0.00
2013-1-10,84,74,66,75,66,55,99,78,38,30.32,30.20,23,6,23,0.00
2013-1-11,85,72,62,75,66,54,99,84,37,30.29,30.14,16,4,16,0.01
2013-1-12,85,74,66,75,67,60,99,81,47,30.21,30.08,17,5,17,0.00
2013-1-13,84,72,64,72,66,58,99,84,44,30.17,30.08,13,3,13,0.00
2013-1-14,83,70,60,70,62,57,99,81,43,30.21,30.13,17,2,17,0.00
2013-1-15,84,70,58,73,63,58,99,82,42,30.18,30.07,13,2,13,0.00
2013-1-16,84,70,59,72,62,51,99,80,33,30.14,30.03,16,2,16,0.00
2013-1-17,83,67,60,76,61,49,99,84,55,30.17,30.02,19,5,19,0.00
2013-1-18,69,58,44,59,47,34,99,68,49,30.34,30.16,19,7,19,0.00
2013-1-19,76,66,59,67,62,58,99,90,63,30.28,30.13,21,7,21,0.00
2013-1-20,79,69,63,71,65,62,99,90,59,30.20,30.05,14,4,14,0.00
2013-1-21,79,67,60,69,64,60,99,90,57,30.13,30.02,13,3,14,0.00
2013-1-22,72,62,56,60,49,37,99,66,34,30.30,30.09,17,5,17,0.00
2013-1-23,75,60,51,42,35,14,63,43,11,30.38,30.27,20,5,20,0.00
2013-1-24,78,60,46,78,43,14,99,60,10,30.37,30.25,15,3,15,0.00
2013-1-25,79,61,46,58,47,38,99,68,24,30.35,30.22,15,2,15,0.00
2013-1-26,80,62,48,58,47,29,99,68,17,30.32,30.19,11,2,11,0.00
2013-1-27,81,66,51,62,53,41,99,69,26,30.33,30.23,21,5,21,0.00
2013-1-28,84,71,60,67,59,54,99,70,39,30.35,30.22,19,4,19,0.00
2013-1-29,86,72,61,71,64,57,99,79,38,30.26,30.12,19,4,19,0.00
2013-1-30,83,73,66,71,66,60,99,83,48,30.13,29.98,25,7,25,0.00
2013-1-31,72,63,47,72,50,23,99,70,19,30.26,29.96,14,5,14,0.18
2013-2-1,71,54,40,71,33,8,93,50,10,30.37,30.25,22,5,22,0.00
2013-2-2,78,59,43,50,40,28,89,56,18,30.33,30.16,17,4,17,0.00
2013-2-3,75,59,46,74,44,10,99,59,10,30.26,30.12,17,4,17,0.00
2013-2-4,75,57,41,75,46,11,99,64,10,30.20,30.07,15,2,15,0.01
2013-2-5,81,63,45,59,49,40,99,66,24,30.13,30.03,10,2,10,0.00
2013-2-6,84,68,53,67,58,50,99,74,33,30.15,30.04,11,2,11,0.00
2013-2-7,82,71,60,69,63,54,99,80,39,30.11,29.95,17,4,17,0.00
2013-2-8,85,73,60,72,61,38,99,75,21,30.11,29.93,18,4,18,0.00
2013-2-9,80,67,54,61,57,50,99,74,35,30.21,30.08,22,6,22,0.01
2013-2-10,83,70,60,65,60,51,99,74,34,30.28,30.16,19,6,19,0.00
2013-2-11,86,72,62,68,63,56,99,78,42,30.23,30.11,19,4,19,0.00
2013-2-12,89,72,60,73,67,60,99,87,58,30.15,29.99,18,4,18,0.00
2013-2-13,84,75,65,77,70,54,99,87,59,30.02,29.92,21,6,21,0.01
2013-2-14,71,63,60,71,61,56,99,93,73,30.07,29.95,17,5,17,2.41
2013-2-15,70,62,59,65,61,51,99,96,74,30.11,29.99,10,2,10,0.06
2013-2-16,70,61,54,61,51,38,99,73,42,30.15,29.96,21,5,21,0.00
2013-2-17,59,49,37,59,28,-1,80,35,10,30.38,30.14,22,6,22,0.02
2013-2-18,72,53,35,48,36,21,87,55,27,30.38,30.25,21,5,21,0.00
2013-2-19,80,64,50,62,56,48,99,79,46,30.25,30.12,16,3,16,0.00
2013-2-20,84,67,54,70,57,47,99,76,28,30.16,30.02,13,2,13,0.00
2013-2-21,84,70,60,72,62,58,99,81,44,30.14,30.02,13,2,13,0.00
2013-2-22,86,72,-19,74,65,-32,99,82,46,30.12,30.01,16,3,16,0.00
2013-2-23,84,75,67,76,71,66,99,89,63,30.06,29.94,20,2,20,0.00
2013-2-24,87,75,68,78,69,61,99,84,43,30.02,29.93,15,3,15,0.00
2013-2-25,85,74,65,76,69,64,99,87,55,29.95,29.81,18,4,18,0.00
2013-2-26,84,74,64,77,72,64,99,93,69,29.93,29.77,26,7,26,0.19
2013-2-27,76,67,59,69,61,57,99,83,53,30.01,29.90,9,2,9,0.01
2013-2-28,75,64,59,59,55,47,98,74,39,30.07,29.95,14,3,14,0.00
2013-3-1,66,61,56,55,46,36,75,59,40,30.06,29.96,14,4,14,0.00
2013-3-2,61,55,50,44,39,33,79,55,36,30.11,30.03,17,4,17,0.00
2013-3-3,60,51,42,49,41,31,99,71,38,30.22,30.02,18,4,18,0.09
2013-3-4,71,52,36,70,35,10,98,60,10,30.28,30.16,19,3,19,0.00
2013-3-5,76,58,40,59,48,36,99,76,30,30.22,30.11,16,3,16,0.00
2013-3-6,71,62,51,65,47,21,99,66,17,30.19,30.04,19,5,19,0.06
2013-3-7,69,55,44,44,35,17,81,53,14,30.27,30.15,17,5,17,0.00
2013-3-8,80,59,42,80,45,15,97,60,10,30.27,30.15,15,3,15,0.00
2013-3-9,80,63,46,54,43,19,99,59,12,30.25,30.11,16,4,16,0.00
2013-3-10,80,67,55,56,50,41,86,57,27,30.20,30.06,22,6,25,0.00
2013-3-11,81,69,57,78,57,50,99,70,36,30.13,29.95,21,6,21,0.00
2013-3-12,73,67,57,72,64,52,99,89,79,30.09,29.91,18,6,18,0.06
2013-3-13,80,63,51,79,50,14,99,50,10,30.21,30.06,17,5,17,0.00
2013-3-14,74,59,46,74,46,6,96,38,10,30.29,30.17,21,5,21,0.02
2013-3-15,76,58,43,76,48,6,92,46,10,30.34,30.18,21,4,21,0.00
2013-3-16,79,60,43,55,41,17,99,58,11,30.25,30.12,11,2,11,0.00
2013-3-17,79,63,49,58,53,48,99,73,39,30.18,30.04,21,3,21,0.00
2013-3-18,79,68,59,74,65,56,99,89,62,30.09,29.95,16,4,16,0.14
2013-3-19,85,72,65,71,66,59,99,85,45,30.05,29.87,21,4,21,0.04
2013-3-20,81,67,60,67,62,48,99,87,35,30.04,29.84,20,3,20,0.11
2013-3-21,76,64,52,76,51,13,99,59,10,30.01,29.89,23,4,23,0.12
2013-3-22,80,64,46,73,54,39,99,71,40,30.04,29.92,17,5,17,0.02
2013-3-23,85,75,68,78,69,60,99,85,54,30.05,29.84,22,5,22,0.59
2013-3-24,84,76,68,77,73,68,99,92,66,29.89,29.71,24,9,24,0.04
2013-3-25,77,69,54,77,53,11,99,54,10,30.09,29.79,17,5,17,0.00
2013-3-26,65,56,47,46,34,22,80,47,22,30.29,30.07,21,6,21,0.00
2013-3-27,68,53,39,67,29,8,89,47,10,30.36,30.23,17,4,17,0.00
2013-3-28,76,57,41,76,42,10,89,49,10,30.35,30.21,18,4,18,0.00
2013-3-29,80,61,44,79,46,14,93,47,10,30.37,30.22,20,4,20,0.00
2013-3-30,80,64,49,57,47,36,99,62,22,30.30,30.17,16,-8,16,0.00
2013-3-31,83,67,52,61,54,44,99,68,27,30.23,30.06,16,4,16,0.00
2013-4-1,85,71,59,73,62,55,99,79,38,30.09,30.00,17,3,17,0.00
2013-4-2,86,73,65,73,64,55,99,77,37,30.13,30.03,11,2,11,0.01
2013-4-3,88,74,62,71,64,53,99,74,32,30.10,29.96,21,5,21,0.00
2013-4-4,81,71,56,75,69,56,99,93,70,30.06,29.86,25,5,25,0.89
2013-4-5,77,69,60,72,64,53,99,84,50,30.04,29.86,21,-10,21,0.79
2013-4-6,81,67,58,62,56,49,94,71,35,30.17,30.00,20,5,20,0.00
2013-4-7,84,71,58,66,58,49,99,69,30,30.17,30.06,21,5,21,0.00
2013-4-8,87,74,62,64,55,38,99,57,18,30.15,30.05,16,4,16,0.00
2013-4-9,86,74,62,69,60,48,99,66,27,30.17,30.07,18,5,18,0.00
2013-4-10,91,74,63,75,66,59,99,80,35,30.13,29.98,16,4,16,0.12
2013-4-11,87,78,71,75,71,66,99,81,50,30.02,29.87,23,8,23,0.00
2013-4-12,88,79,74,78,73,67,99,82,52,29.97,29.89,19,6,19,0.00
2013-4-13,89,80,72,74,67,56,92,68,37,30.00,29.89,16,4,16,0.00
2013-4-14,90,78,68,76,70,62,99,78,44,30.00,29.87,17,5,17,0.00
2013-4-15,92,78,65,75,67,61,99,72,37,30.10,29.95,13,4,13,0.20
2013-4-16,93,79,68,76,68,59,99,75,33,30.16,30.04,27,6,27,0.00
2013-4-17,89,78,68,72,64,52,99,67,30,30.16,30.02,19,6,19,0.00
2013-4-18,91,78,70,75,67,58,99,72,34,30.08,29.96,22,5,22,0.22
2013-4-19,89,79,71,77,71,62,99,79,42,30.05,29.96,17,6,17,0.02
2013-4-20,88,77,68,80,69,63,99,80,45,30.16,29.99,18,4,18,0.47
2013-4-21,88,73,62,71,66,61,99,83,42,30.16,30.00,15,6,15,0.78
2013-4-22,86,74,68,72,67,62,99,80,47,30.11,29.96,18,5,18,1.18
2013-4-23,87,75,54,70,63,48,99,71,33,30.32,30.01,21,8,21,0.00
2013-4-24,89,74,61,68,61,46,99,69,26,30.17,30.07,14,4,14,0.00
2013-4-25,89,76,64,71,61,38,99,64,18,30.24,30.11,15,3,15,0.00
2013-4-26,88,75,61,68,60,54,99,64,33,30.26,30.16,23,4,23,0.00
2013-4-27,87,76,66,72,60,49,99,63,28,30.24,30.08,25,6,25,0.00
2013-4-28,88,76,66,73,60,52,95,63,30,30.14,29.98,19,6,19,0.09
2013-4-29,89,75,64,69,64,53,99,72,31,30.05,29.95,18,4,18,0.11
2013-4-30,88,74,67,76,69,61,99,87,42,30.01,29.93,17,3,17,0.05
2013-5-1,79,71,67,78,70,67,99,98,88,30.03,29.88,25,5,25,1.31
2013-5-2,75,70,67,74,69,65,99,98,86,29.99,29.83,12,2,12,0.30
2013-5-3,87,74,64,74,66,58,99,79,41,29.87,29.73,14,3,14,0.01
2013-5-4,82,74,67,73,67,62,99,80,55,29.85,29.72,20,-74,20,0.00
2013-5-5,82,72,60,70,52,19,97,57,10,30.00,29.81,16,5,16,0.00
2013-5-6,79,69,58,71,59,52,99,74,41,30.04,29.95,12,2,12,0.00
2013-5-7,80,70,58,61,56,52,99,66,41,30.10,30.01,15,4,15,0.00
2013-5-8,83,70,58,68,58,49,99,69,36,30.17,30.08,15,2,15,0.00
2013-5-9,89,73,57,89,56,24,99,63,10,30.19,30.09,10,2,10,0.00
2013-5-10,91,77,63,72,66,58,99,73,34,30.16,30.02,15,3,15,0.00
2013-5-11,90,79,68,78,70,60,99,78,37,30.09,30.01,20,3,20,0.00
2013-5-12,88,80,72,81,72,66,99,80,50,30.08,29.95,15,3,15,0.00
2013-5-13,88,77,68,74,63,44,99,67,30,30.15,30.03,12,3,12,0.00
2013-5-14,87,73,60,87,47,23,84,44,10,30.22,30.12,20,6,20,0.00
2013-5-15,86,74,59,62,53,41,96,54,21,30.22,30.10,19,5,19,0.00
2013-5-16,88,76,62,66,54,33,99,55,16,30.15,30.02,17,4,17,0.00
2013-5-17,91,78,65,69,60,44,99,59,20,30.12,30.04,20,3,20,0.00
2013-5-18,93,80,68,76,63,51,99,64,25,30.13,30.02,15,2,15,0.00
2013-5-19,92,78,69,75,68,58,99,74,32,30.13,30.00,21,2,21,0.00
2013-5-20,93,76,69,77,68,41,99,82,19,30.10,29.99,25,4,25,0.14
2013-5-21,91,76,68,76,68,58,99,81,36,30.05,29.91,22,4,22,0.15
2013-5-22,90,78,68,76,68,61,99,78,41,29.99,29.90,15,3,15,0.00
2013-5-23,90,79,68,78,68,60,99,73,38,30.05,29.94,11,3,11,0.00
2013-5-24,95,81,71,78,65,45,99,65,19,30.10,29.99,16,3,16,0.01
2013-5-25,90,79,66,74,63,51,99,64,27,30.19,30.06,21,7,21,0.00
2013-5-26,89,77,65,64,57,37,89,55,16,30.22,30.12,21,6,21,0.00
2013-5-27,90,78,65,69,62,50,97,64,28,30.20,30.06,23,7,23,0.00
2013-5-28,86,78,70,75,70,64,99,78,48,30.14,30.03,29,7,29,0.00
2013-5-29,86,77,70,75,70,64,99,82,48,30.12,30.03,23,8,23,0.13
2013-5-30,87,78,71,76,71,68,99,80,54,30.09,29.99,30,10,30,3.02
2013-5-31,88,79,72,76,71,66,99,77,50,30.08,30.01,21,8,21,16.63
2013-6-1,91,78,73,79,74,66,99,89,46,30.06,29.97,17,0,17,0.92
2013-6-2,92,81,72,79,72,26,99,78,13,30.03,29.93,15,4,15,0.00
2013-6-3,85,78,74,79,75,70,99,92,63,30.04,29.94,13,2,13,0.02
2013-6-4,81,77,73,78,75,72,99,93,75,30.06,29.98,21,4,21,0.02
2013-6-5,80,78,76,79,76,69,99,97,79,30.04,29.88,19,6,19,0.11
2013-6-6,81,76,71,80,75,71,99,99,97,29.91,29.77,33,8,33,2.62
2013-6-7,84,78,74,81,75,69,99,90,63,30.01,29.83,11,-2,11,0.01
2013-6-8,90,80,75,82,75,70,99,86,54,30.13,29.99,18,4,18,0.00
2013-6-9,94,81,74,81,75,58,99,84,33,30.13,30.01,23,4,23,0.41
2013-6-10,95,82,75,81,74,60,99,79,34,30.11,30.02,20,3,20,0.00
2013-6-11,95,81,72,83,74,66,99,84,39,30.11,30.00,23,-1,23,0.64
2013-6-12,95,79,72,82,73,62,99,86,36,30.12,30.02,23,2,23,0.15
2013-6-13,92,79,70,82,72,65,99,84,45,30.09,29.95,15,2,15,0.01
2013-6-14,89,81,73,81,72,65,99,78,46,30.00,29.91,15,3,15,0.00
2013-6-15,94,83,73,82,73,61,99,75,33,30.07,29.95,10,2,10,0.00
2013-6-16,93,82,76,81,75,67,99,82,44,30.12,30.03,15,3,15,0.07
2013-6-17,96,84,75,82,72,55,99,72,27,30.10,30.01,11,2,11,0.00
2013-6-18,95,84,74,82,73,61,99,73,34,30.10,29.98,13,2,13,0.06
2013-6-19,93,80,73,80,74,64,99,85,43,30.09,30.00,18,3,18,1.03
2013-6-20,92,79,72,83,74,66,99,86,45,30.16,30.05,15,2,15,1.23
2013-6-21,92,79,72,78,73,63,99,84,40,30.14,30.06,15,2,15,0.08
2013-6-22,94,83,73,80,68,48,99,68,23,30.14,30.04,15,3,15,0.00
2013-6-23,93,81,75,79,74,63,99,82,39,30.16,30.08,24,3,24,0.04
2013-6-24,93,82,75,77,72,62,99,75,38,30.20,30.08,21,4,21,0.50
2013-6-25,94,82,73,80,71,54,99,74,27,30.17,30.04,19,4,19,0.51
2013-6-26,92,79,74,80,75,66,99,90,44,30.11,30.03,21,3,21,0.91
2013-6-27,95,80,72,80,73,56,99,83,31,30.08,29.97,22,3,22,0.05
2013-6-28,93,82,74,81,73,66,99,78,44,30.02,29.89,13,2,13,0.00
2013-6-29,92,83,76,81,74,62,99,78,38,29.94,29.85,16,3,16,0.00
2013-6-30,90,81,76,82,75,69,99,85,53,29.94,29.85,23,5,23,0.20
2013-7-1,87,76,72,81,75,60,99,97,65,30.04,29.92,27,6,27,2.49
2013-7-2,88,77,71,81,76,71,99,97,68,30.12,29.99,20,3,20,1.03
2013-7-3,91,78,74,81,76,70,99,94,54,30.15,30.07,25,4,25,0.35
2013-7-4,90,79,73,81,75,70,99,90,54,30.17,30.08,22,4,22,0.11
2013-7-5,88,79,74,80,76,71,99,91,58,30.16,30.06,23,4,23,0.33
2013-7-6,92,82,76,81,73,61,99,77,39,30.14,30.03,15,5,15,0.21
2013-7-7,91,82,76,82,74,67,99,80,47,30.15,30.04,26,5,26,0.17
2013-7-8,92,82,76,80,73,63,99,79,39,30.17,30.09,27,3,27,0.04
2013-7-9,89,81,73,80,72,63,99,76,44,30.18,30.07,23,4,23,0.00
2013-7-10,89,80,73,80,73,64,99,83,45,30.12,30.00,12,2,12,0.05
2013-7-11,89,81,74,80,73,64,99,80,46,30.07,29.96,11,2,11,0.01
2013-7-12,90,81,74,81,73,64,99,78,44,29.99,29.92,11,2,11,0.00
2013-7-13,87,77,73,80,75,70,99,94,61,30.02,29.94,15,3,15,0.96
2013-7-14,85,78,73,79,74,68,99,92,58,30.11,29.98,15,5,15,0.01
2013-7-15,89,78,72,77,73,65,99,86,45,30.13,30.02,18,3,18,0.63
2013-7-16,87,78,73,79,73,67,99,87,53,30.17,30.07,30,7,30,0.13
2013-7-17,87,79,74,80,73,65,99,83,51,30.16,30.06,21,6,21,0.01
2013-7-18,82,76,72,79,74,71,99,95,73,30.14,30.07,16,3,16,0.73
2013-7-19,93,78,71,80,73,64,99,87,44,30.16,30.05,15,3,15,0.09
2013-7-20,92,79,74,84,75,70,99,89,50,30.15,30.05,27,3,27,0.12
2013-7-21,90,81,75,84,77,74,99,89,61,30.17,30.07,12,2,12,0.02
2013-7-22,94,83,75,81,74,65,99,78,41,30.17,30.09,11,2,11,0.00
2013-7-23,92,83,77,83,75,66,99,79,44,30.14,30.01,11,2,11,0.00
2013-7-24,90,82,74,81,72,63,99,75,42,30.06,29.96,15,3,15,0.00
2013-7-25,89,83,76,81,74,69,99,78,56,30.05,29.94,14,3,14,0.00
2013-7-26,93,83,76,82,74,66,99,76,43,30.05,29.97,11,2,11,0.20
2013-7-27,92,84,78,84,74,65,99,76,44,30.04,29.95,12,2,12,0.00
2013-7-28,93,84,76,84,71,58,99,71,33,30.09,29.97,14,2,14,0.00
2013-7-29,94,81,74,79,73,62,99,80,35,30.14,30.05,11,2,11,0.00
2013-7-30,93,84,78,79,75,68,99,76,47,30.19,30.10,19,3,19,0.01
2013-7-31,92,81,76,83,75,67,99,84,45,30.16,30.03,15,2,15,0.01
2013-8-1,94,81,74,81,72,55,99,81,33,30.09,29.94,17,2,17,0.14
2013-8-2,93,82,74,82,72,60,99,75,34,30.09,29.96,16,2,16,0.02
2013-8-3,92,80,76,83,76,70,99,88,51,30.14,30.04,16,2,16,0.00
2013-8-4,94,84,77,84,76,69,99,80,46,30.13,30.03,13,-1,13,0.00
2013-8-5,93,84,78,86,76,68,99,80,45,30.08,29.96,12,2,13,0.00
2013-8-6,92,82,76,85,77,71,99,87,54,30.03,29.92,11,1,11,0.83
2013-8-7,96,81,75,81,76,64,99,85,38,29.99,29.92,15,3,15,0.08
2013-8-8,95,82,75,82,75,64,99,83,38,30.04,29.94,15,3,15,0.37
2013-8-9,93,79,72,81,74,64,99,88,40,30.09,29.98,34,3,34,1.39
2013-8-10,94,83,74,81,72,59,99,73,33,30.14,30.04,15,4,15,0.00
2013-8-11,100,85,77,81,72,60,99,71,34,30.16,30.06,14,4,14,0.00
2013-8-12,94,84,75,81,69,54,99,66,27,30.15,30.02,17,4,17,0.00
2013-8-13,94,82,75,82,74,63,99,80,36,30.09,29.96,17,2,17,0.20
2013-8-14,95,82,75,83,73,56,99,79,28,30.05,29.94,14,2,14,0.20
2013-8-15,86,80,76,80,77,72,99,90,65,30.09,29.99,10,2,10,0.01
2013-8-16,96,84,77,82,75,60,99,80,32,30.08,29.97,20,2,20,0.25
2013-8-17,96,82,76,84,75,60,99,83,31,30.10,29.99,26,3,26,0.25
2013-8-18,94,81,75,82,76,65,99,86,41,30.12,30.01,16,4,16,0.06
2013-8-19,92,80,75,82,76,68,99,88,49,30.11,29.97,24,4,24,0.35
2013-8-20,92,80,74,82,75,66,99,87,44,30.09,30.01,17,3,17,0.02
2013-8-21,92,81,76,83,77,71,99,91,51,30.11,30.01,27,5,27,0.13
2013-8-22,96,81,73,81,76,67,99,88,41,30.08,29.97,31,4,31,0.33
2013-8-23,93,80,74,83,76,66,99,89,46,30.04,29.96,21,2,21,1.41
2013-8-24,96,82,75,83,74,32,99,82,33,30.16,30.01,18,3,18,0.35
2013-8-25,89,79,75,81,76,67,99,93,60,30.17,30.06,23,4,23,0.92
2013-8-26,94,80,73,82,75,62,99,89,36,30.15,30.01,14,3,14,0.19
2013-8-27,103,79,73,81,75,68,99,89,49,30.08,29.99,23,2,23,0.09
2013-8-28,90,79,74,80,74,62,99,86,40,30.07,30.00,20,2,20,0.02
2013-8-29,93,82,74,79,73,62,99,79,37,30.07,29.95,11,2,11,0.00
2013-8-30,92,81,70,82,75,67,99,83,47,30.03,29.92,17,2,17,0.01
2013-8-31,92,82,73,81,73,66,99,78,44,30.01,29.92,11,2,11,0.00
2013-9-1,93,79,73,80,74,62,99,86,37,30.03,29.95,28,2,28,0.96
2013-9-2,90,78,74,82,75,69,99,93,56,30.06,29.96,18,2,18,0.46
2013-9-3,90,81,74,82,76,70,99,86,56,30.07,29.96,11,1,11,0.14
2013-9-4,92,80,76,82,77,69,99,92,50,30.10,29.98,21,-5,21,0.06
2013-9-5,95,83,75,85,75,57,99,80,29,30.12,30.00,19,3,19,0.00
2013-9-6,96,84,75,84,74,62,99,79,34,30.08,29.93,30,3,30,0.07
2013-9-7,93,79,74,88,74,66,99,87,42,30.03,29.92,22,4,22,1.09
2013-9-8,93,80,73,81,73,56,99,82,33,29.99,29.88,12,-5,12,0.25
2013-9-9,92,82,76,80,73,61,99,77,35,30.04,29.93,20,4,20,0.01
2013-9-10,92,82,76,80,73,63,99,76,41,30.08,29.99,29,7,29,0.01
2013-9-11,89,80,76,78,75,69,99,86,53,30.07,30.00,21,-2,21,0.05
2013-9-12,92,80,74,81,74,64,99,87,42,30.05,29.90,26,3,26,0.85
2013-9-13,93,80,73,81,73,63,99,81,37,29.94,29.83,9,2,9,0.01
2013-9-14,93,82,73,84,74,60,99,78,41,30.00,29.86,21,1,21,0.28
2013-9-15,93,80,76,83,76,66,99,88,46,30.10,29.96,27,4,27,0.30
2013-9-16,88,77,74,81,76,72,99,97,68,30.10,29.99,23,4,23,0.43
2013-9-17,89,77,74,82,75,71,99,94,57,30.06,29.95,21,4,21,0.18
2013-9-18,92,78,74,81,75,69,99,91,48,30.05,29.96,16,4,16,0.02
2013-9-19,90,80,74,80,75,70,99,86,54,30.06,29.97,23,4,23,0.01
2013-9-20,90,81,73,77,70,60,99,72,39,30.04,29.91,20,4,20,0.00
2013-9-21,90,80,71,77,70,58,99,77,35,29.97,29.80,11,2,11,0.00
2013-9-22,92,81,74,81,74,62,99,81,39,29.89,29.79,15,3,15,0.00
2013-9-23,82,77,75,82,77,75,99,99,98,30.01,29.86,13,2,13,1.89
2013-9-24,82,76,72,82,75,71,99,99,97,29.99,29.91,15,2,15,2.94
2013-9-25,80,75,72,80,75,72,99,99,99,29.97,29.83,15,2,15,0.32
2013-9-26,90,82,74,86,78,72,99,90,57,29.91,29.83,19,4,19,0.31
2013-9-27,88,80,74,77,72,60,99,79,41,29.97,29.87,18,4,18,0.00
2013-9-28,91,80,73,80,72,64,99,79,44,30.01,29.91,30,6,30,0.00
2013-9-29,91,80,72,76,70,59,99,74,36,30.01,29.89,15,4,15,0.00
2013-9-30,92,81,72,77,70,48,99,75,23,30.04,29.91,15,-1,15,0.07
2013-10-1,91,81,72,79,71,60,99,75,37,30.07,29.96,19,4,19,0.07
2013-10-2,90,80,74,76,72,63,99,77,43,30.07,29.97,23,6,23,0.00
2013-10-3,90,79,74,77,75,69,99,88,52,30.08,29.97,17,4,17,0.00
2013-10-4,90,80,74,79,72,65,99,78,44,30.10,30.00,15,2,15,0.01
2013-10-5,91,81,72,75,70,54,99,73,30,30.08,29.95,13,2,13,0.00
2013-10-6,92,80,72,79,71,60,99,77,38,30.01,29.89,14,2,14,0.00
2013-10-7,87,78,73,83,76,71,99,93,66,29.92,29.81,21,3,21,0.63
2013-10-8,88,79,73,80,72,66,99,82,50,29.96,29.86,15,2,15,0.02
2013-10-9,87,78,73,76,72,66,99,83,51,30.05,29.94,15,4,15,0.00
2013-10-10,89,78,68,73,68,59,99,75,37,30.07,29.97,16,3,16,0.00
2013-10-11,91,78,66,71,62,40,99,67,18,30.06,29.96,16,2,16,0.00
2013-10-12,89,77,68,74,65,53,99,71,31,30.07,29.99,11,2,11,0.00
2013-10-13,88,78,69,73,62,49,99,63,27,30.09,29.99,17,3,17,0.00
2013-10-14,88,78,68,70,62,48,99,65,26,30.07,29.94,15,3,15,0.00
2013-10-15,90,78,69,72,64,47,99,68,23,30.01,29.90,15,3,15,0.00
2013-10-16,89,76,69,77,68,58,99,79,38,30.00,29.91,11,2,11,0.00
2013-10-17,90,78,69,77,68,55,99,76,31,30.01,29.91,8,2,8,0.00
2013-10-18,92,80,71,77,70,56,99,76,32,30.01,29.91,14,2,14,0.00
2013-10-19,91,82,73,77,72,65,99,74,44,29.99,29.88,11,3,11,0.00
2013-10-20,91,81,74,84,72,6,99,78,42,29.99,29.89,8,1,8,0.01
2013-10-21,91,80,72,80,72,66,99,79,46,30.03,29.93,10,2,10,0.00
2013-10-22,90,80,73,81,73,67,99,82,48,29.99,29.86,13,3,13,0.05
2013-10-23,88,76,69,78,67,50,99,77,45,30.02,29.85,15,3,15,0.27
2013-10-24,75,69,65,59,54,45,81,58,43,30.17,30.01,16,6,16,0.00
2013-10-25,83,70,62,61,56,46,90,64,30,30.24,30.14,19,5,19,0.00
2013-10-26,86,71,61,85,52,22,93,59,10,30.22,30.09,13,4,13,0.00
2013-10-27,84,70,59,61,53,34,97,61,18,30.15,30.06,15,3,15,0.00
2013-10-28,86,73,61,65,57,41,99,64,22,30.20,30.10,17,4,17,0.00
2013-10-29,87,75,64,65,61,51,95,65,30,30.23,30.12,20,6,20,0.00
2013-10-30,87,75,66,70,61,44,99,66,24,30.24,30.09,24,5,24,0.00
2013-10-31,90,76,66,71,64,47,99,75,24,30.14,30.00,17,3,17,0.00
2013-11-1,87,76,66,76,68,59,99,81,41,30.04,29.92,16,2,16,0.00
2013-11-2,84,73,68,79,67,60,99,83,55,30.00,29.85,15,3,15,0.01
2013-11-3,81,71,62,81,52,17,89,45,10,30.11,29.98,21,6,21,0.00
2013-11-4,83,70,58,61,53,44,83,58,27,30.15,30.06,30,8,30,0.05
2013-11-5,85,75,67,68,65,60,95,73,47,30.13,30.04,28,9,28,0.07
2013-11-6,87,78,70,68,64,57,90,65,37,30.11,30.01,21,6,21,0.00
2013-11-7,85,74,66,73,66,60,99,77,43,30.07,29.97,16,2,16,0.00
2013-11-8,84,74,66,69,64,58,99,73,44,30.11,30.01,25,7,25,0.00
2013-11-9,83,74,66,68,66,63,91,77,54,30.16,30.08,27,7,27,0.00
2013-11-10,87,76,69,71,65,57,97,71,37,30.17,30.06,22,5,22,0.00
2013-11-11,87,76,68,70,63,50,99,69,30,30.17,30.06,18,5,18,0.00
2013-11-12,85,75,67,72,64,54,99,72,37,30.13,30.01,13,3,13,0.00
2013-11-13,73,67,59,68,53,43,92,63,44,30.28,30.06,31,11,31,0.06
2013-11-14,79,66,56,57,50,40,86,59,26,30.29,30.16,30,8,30,0.00
2013-11-15,81,72,62,63,60,56,87,68,48,30.19,30.05,23,6,23,0.00
2013-11-16,80,73,68,75,66,60,99,80,55,30.12,30.04,20,5,20,0.13
2013-11-17,89,76,68,73,66,51,99,75,29,30.10,30.00,15,2,15,0.00
2013-11-18,88,76,67,77,67,56,99,78,37,30.06,29.95,8,1,8,0.00
2013-11-19,94,76,69,78,70,58,99,82,40,30.09,29.88,8,1,8,0.00
2013-11-20,90,76,67,75,67,53,99,78,29,30.10,29.97,17,4,17,0.00
2013-11-21,87,76,70,77,71,64,99,85,47,30.19,30.07,18,4,18,0.00
2013-11-22,86,76,69,74,66,54,99,74,35,30.19,30.09,23,7,23,0.00
2013-11-23,90,74,65,73,64,57,98,73,38,30.13,29.96,16,3,16,0.00
2013-11-24,79,69,64,67,62,57,99,80,52,30.20,30.04,26,7,26,0.00
2013-11-25,78,70,64,66,58,50,91,67,39,30.23,30.07,30,10,30,0.00
2013-11-26,87,76,68,76,70,62,99,84,45,30.07,29.81,23,7,23,0.19
2013-11-27,75,69,51,74,58,42,99,71,37,30.21,29.79,21,6,21,0.25
2013-11-28,71,55,40,51,41,33,85,62,33,30.35,30.21,18,7,18,0.00
2013-11-29,78,64,53,54,51,46,95,67,34,30.35,30.24,24,9,24,0.01
2013-11-30,78,65,56,78,60,23,99,84,54,30.31,24.23,28,6,28,0.00
2013-12-1,77,66,61,69,64,60,99,91,63,30.20,30.00,12,4,12,0.00
2013-12-2,74,67,62,72,63,58,99,89,60,30.00,29.87,8,1,8,0.00
2013-12-3,80,69,63,66,62,56,99,81,48,30.02,29.93,13,-1,13,0.00
2013-12-4,84,72,61,70,62,51,99,75,36,30.12,30.00,12,2,12,0.00
2013-12-5,85,72,63,70,64,54,99,78,36,30.19,30.09,14,2,14,0.00
2013-12-6,87,74,65,74,66,59,99,81,40,30.21,30.10,15,3,15,0.00
2013-12-7,87,73,62,71,62,52,99,75,31,30.26,30.15,11,2,11,0.00
2013-12-8,86,74,66,72,63,52,99,74,31,30.24,29.94,16,3,16,0.00
2013-12-9,88,74,64,73,64,52,99,75,31,30.21,30.05,15,3,15,0.00
2013-12-10,87,72,61,73,64,54,99,78,32,30.19,30.10,11,2,11,0.00
2013-12-11,86,73,66,68,65,58,99,78,40,30.26,30.15,17,4,17,0.00
2013-12-12,74,67,56,68,59,35,99,79,40,30.30,30.18,19,6,19,0.00
2013-12-13,79,64,51,60,51,38,89,63,37,30.27,30.12,21,6,21,0.00
2013-12-14,87,74,62,73,66,59,99,79,40,30.13,29.99,15,5,15,0.00
2013-12-15,80,74,67,76,70,57,99,87,67,30.14,29.95,18,4,18,0.19
2013-12-16,71,62,53,58,50,32,87,67,24,30.24,30.11,13,4,13,0.00
2013-12-17,79,61,48,54,49,43,92,68,31,30.27,30.15,15,4,15,0.00
2013-12-18,75,60,48,75,45,12,90,51,10,30.33,30.22,17,3,17,0.00
2013-12-19,79,63,46,55,48,36,91,62,25,30.30,30.17,17,4,17,0.00
2013-12-20,84,72,59,63,60,55,94,67,41,30.22,30.10,22,5,22,0.00
2013-12-21,86,75,68,72,66,58,99,75,39,30.17,30.04,20,5,20,0.00
2013-12-22,86,75,70,73,67,60,99,79,45,30.18,30.09,17,3,17,0.00
2013-12-23,85,76,70,76,70,63,99,84,49,30.20,30.13,16,4,16,0.00
2013-12-24,72,68,55,72,59,32,99,77,34,30.25,30.14,18,6,18,0.00
2013-12-25,78,65,54,59,51,36,73,61,44,30.24,30.13,23,7,23,0.00
2013-12-26,81,70,62,63,58,53,85,67,44,30.23,30.08,16,5,16,0.00
2013-12-27,82,71,64,65,62,57,97,76,45,30.25,30.11,19,7,19,0.00
2013-12-28,84,74,67,70,66,60,99,80,47,30.22,30.04,20,7,20,0.00
2013-12-29,80,74,68,77,71,61,99,89,71,30.05,29.94,22,6,22,0.30
2013-12-30,74,67,62,62,60,56,91,79,55,30.22,30.04,14,4,14,0.00
2013-12-31,72,66,62,60,50,32,94,61,24,30.31,30.17,21,7,21,0.00
2014-1-1,83,70,62,69,61,52,99,74,50,30.25,29.91,17,4,17,0.02
2014-1-2,82,73,66,74,68,64,99,87,55,30.08,29.91,23,5,23,0.09